Rosemary — WDF3335 — position and weather

sailwx.info

Track history (hours):
 
Tides and Currents Weather Stations Pressure Air Temp Water Temp Dewpoint Dewpoint Depression Visibility Wind Speed Wind Dir Waves Ship Positions

Rosemary

Owner: G & H Towing Company, Galveston, TX. More information available from US FCC via Universal Licensing System and Coast Guard Vessel Documentation Center.

Last reported at 2017-Sep-19 20:23 UTC. Time now 2017-Sep-19 20:43 UTC.
Position N 29°46' W 095°05'.

Length 29 m; draft 4.5 m.

Type: Tug. MMSI: 367438690.

Date/timePositionNaut miles runAvg speedWind from/ knotsBaromVisibWave heightAir tempDewpointWater temp
2017-Sep-19 20:23N 29°46' W 095°05'3 6.8
2017-Sep-19 20:00N 29°44' W 095°03'3 4.5
2017-Sep-19 19:26N 29°42' W 095°01'0 0.0
2017-Sep-19 18:57N 29°42' W 095°01'0 0.0
2017-Sep-19 18:24N 29°42' W 095°01'0 0.0
2017-Sep-19 17:57N 29°42' W 095°01'0 0.0
2017-Sep-19 17:30N 29°42' W 095°01'0 0.0
2017-Sep-19 17:00N 29°42' W 095°01'0 0.0
2017-Sep-19 16:30N 29°42' W 095°01'0 0.0
2017-Sep-19 16:00N 29°42' W 095°01'0 0.0
2017-Sep-19 15:30N 29°42' W 095°01'0 0.0
2017-Sep-19 15:00N 29°42' W 095°01'0 0.0
2017-Sep-19 14:29N 29°42' W 095°01'0 0.0
2017-Sep-19 14:00N 29°42' W 095°01'0 0.0
2017-Sep-19 13:22N 29°42' W 095°01'0 0.0
2017-Sep-19 12:49N 29°42' W 095°01'0 0.0
2017-Sep-19 12:30N 29°42' W 095°01'0 0.0
2017-Sep-19 11:25N 29°42' W 095°01'0 0.0
2017-Sep-19 10:57N 29°42' W 095°01'0 0.9
2017-Sep-19 10:30N 29°42' W 095°01'4 8.2
2017-Sep-19 10:00N 29°39' W 094°58'510.1
2017-Sep-19 09:30N 29°34' W 094°55'510.6
2017-Sep-19 09:00N 29°30' W 094°52'3 0.5
2017-Sep-19 03:39N 29°32' W 094°54'210.2
2017-Sep-19 03:28N 29°34' W 094°55'5 9.6
2017-Sep-19 03:00N 29°37' W 094°59'2 5.0
2017-Sep-19 02:30N 29°37' W 095°01'0 0.0
2017-Sep-19 02:00N 29°37' W 095°01'0 0.2
2017-Sep-19 01:30N 29°37' W 095°02'1 1.4
2017-Sep-19 01:00N 29°37' W 095°01'0 0.7
2017-Sep-19 00:29N 29°37' W 095°01'0 0.0
2017-Sep-18 23:59N 29°37' W 095°01'0 0.0
2017-Sep-18 23:29N 29°37' W 095°01'0 0.0
2017-Sep-18 22:59N 29°37' W 095°01'0 0.0
2017-Sep-18 22:29N 29°37' W 095°01'0 0.0
2017-Sep-18 21:59N 29°37' W 095°01'0 0.0
2017-Sep-18 21:29N 29°37' W 095°01'0 0.0
2017-Sep-18 20:59N 29°37' W 095°01'0 0.0
2017-Sep-18 20:29N 29°37' W 095°01'0 0.0
2017-Sep-18 19:56N 29°37' W 095°01'0 0.0
2017-Sep-18 19:29N 29°37' W 095°01'0 0.7
2017-Sep-18 18:56N 29°37' W 095°02'0 0.0
2017-Sep-18 18:29N 29°37' W 095°02'0 0.0
2017-Sep-18 17:59N 29°37' W 095°02'0 0.1
2017-Sep-18 17:31N 29°37' W 095°02'0 0.1
2017-Sep-18 16:55N 29°37' W 095°02'0 0.0
2017-Sep-18 16:25N 29°37' W 095°02'0 0.0
2017-Sep-18 15:55N 29°37' W 095°02'0 0.0
2017-Sep-18 15:28N 29°37' W 095°02'0 0.6
2017-Sep-18 15:00N 29°37' W 095°01'0 0.2
2017-Sep-18 14:29N 29°37' W 095°01'0 0.0
2017-Sep-18 13:59N 29°37' W 095°01'0 0.0
2017-Sep-18 13:30N 29°37' W 095°01'1 1.7
2017-Sep-18 13:00N 29°37' W 095°00'1 1.8
2017-Sep-18 12:30N 29°37' W 095°01'1 2.2
2017-Sep-18 12:00N 29°37' W 095°00'3 6.3
2017-Sep-18 11:30N 29°40' W 094°58'2 3.0
2017-Sep-18 11:00N 29°41' W 094°59'0 1.0
2017-Sep-18 10:30N 29°41' W 094°59'0 0.8
2017-Sep-18 09:59N 29°41' W 094°59'0 0.3
2017-Sep-18 09:28N 29°41' W 094°59'0 0.0
2017-Sep-18 08:55N 29°41' W 094°59'0 0.0
2017-Sep-18 08:19N 29°41' W 094°59'0 0.0
2017-Sep-18 07:58N 29°41' W 094°59'0 0.0
2017-Sep-18 07:28N 29°41' W 094°59'0 0.0
2017-Sep-18 06:55N 29°41' W 094°59'0 0.0
2017-Sep-18 06:25N 29°41' W 094°59'0 0.0
2017-Sep-18 05:58N 29°41' W 094°59'0 0.0
2017-Sep-18 05:22N 29°41' W 094°59'0 0.0
2017-Sep-18 04:58N 29°41' W 094°59'0 0.0
2017-Sep-18 04:28N 29°41' W 094°59'0 0.0
2017-Sep-18 03:58N 29°41' W 094°59'0 0.0
2017-Sep-18 03:25N 29°41' W 094°59'0 0.0
2017-Sep-18 02:58N 29°41' W 094°59'0 0.0
2017-Sep-18 02:30N 29°41' W 094°59'3 5.3
2017-Sep-18 02:00N 29°43' W 095°01'2 1.4
2017-Sep-18 00:39N 29°44' W 095°03'2 6.7
2017-Sep-18 00:20N 29°43' W 095°01'1 0.5
2017-Sep-17 23:13N 29°42' W 095°01'0 0.0
2017-Sep-17 22:46N 29°42' W 095°01'0 0.0
2017-Sep-17 22:30N 29°42' W 095°01'5 3.5
2017-Sep-17 21:05N 29°45' W 095°06'0 0.3
2017-Sep-17 20:55N 29°45' W 095°06'4 0.6
2017-Sep-17 14:45N 29°45' W 095°10'0 0.1
2017-Sep-17 10:58N 29°44' W 095°09'0 0.9
2017-Sep-17 10:30N 29°44' W 095°10'0 0.0
2017-Sep-17 10:00N 29°44' W 095°10'3 0.3
2017-Sep-16 23:14N 29°45' W 095°06'0 0.3
2017-Sep-16 22:15N 29°45' W 095°06'1 3.2
2017-Sep-16 21:55N 29°46' W 095°05'1 0.1
2017-Sep-16 15:12N 29°45' W 095°06'1 4.0
2017-Sep-16 15:00N 29°46' W 095°05'3 5.8
2017-Sep-16 14:25N 29°44' W 095°02'2 4.2
2017-Sep-16 14:00N 29°42' W 095°01'0 0.0
2017-Sep-16 13:30N 29°42' W 095°01'0 0.0
2017-Sep-16 13:00N 29°42' W 095°01'0 0.0
2017-Sep-16 12:30N 29°42' W 095°01'4 8.1
2017-Sep-16 12:00N 29°39' W 094°58'3 6.5
2017-Sep-16 11:30N 29°37' W 095°01'1 1.2
2017-Sep-16 11:00N 29°36' W 095°01'0 0.0
2017-Sep-16 10:30N 29°37' W 095°01'0 0.0
2017-Sep-16 10:00N 29°37' W 095°01'1 1.8
2017-Sep-16 09:30N 29°37' W 095°00'0 0.2
2017-Sep-16 09:00N 29°37' W 095°01'0 0.3
2017-Sep-16 08:30N 29°37' W 095°01'1 1.3
2017-Sep-16 07:59N 29°37' W 094°60'3 5.9
2017-Sep-16 07:30N 29°39' W 094°58'2 4.3
2017-Sep-16 07:00N 29°41' W 094°59'0 0.0
2017-Sep-16 06:30N 29°41' W 094°59'0 0.0
2017-Sep-16 06:00N 29°41' W 094°59'0 0.9
2017-Sep-16 05:30N 29°41' W 094°60'1 2.3
2017-Sep-16 05:00N 29°41' W 094°59'4 7.3
2017-Sep-16 04:30N 29°37' W 094°59'1 2.1
2017-Sep-16 03:48N 29°37' W 095°00'0 0.0
2017-Sep-16 03:30N 29°37' W 095°00'0 0.0
2017-Sep-16 03:00N 29°37' W 095°00'0 0.0
2017-Sep-16 02:30N 29°37' W 095°00'0 0.0
2017-Sep-16 02:00N 29°37' W 095°00'0 0.0
2017-Sep-16 01:30N 29°37' W 095°00'0 0.0
2017-Sep-16 01:00N 29°37' W 095°00'0 0.0
2017-Sep-16 00:30N 29°37' W 095°00'0 0.0
2017-Sep-16 00:00N 29°37' W 095°00'0 0.0
2017-Sep-15 23:30N 29°37' W 095°00'0 0.0
2017-Sep-15 23:00N 29°37' W 095°00'0 0.0
2017-Sep-15 22:27N 29°37' W 095°00'0 0.0
2017-Sep-15 21:58N 29°37' W 095°00'0 0.1
2017-Sep-15 21:30N 29°37' W 095°00'1 2.2
2017-Sep-15 20:58N 29°37' W 095°02'0 0.0
2017-Sep-15 20:28N 29°37' W 095°02'0 0.0
2017-Sep-15 19:58N 29°37' W 095°02'0 0.0
2017-Sep-15 19:22N 29°37' W 095°02'0 0.0
2017-Sep-15 18:58N 29°37' W 095°02'0 0.0
2017-Sep-15 18:28N 29°37' W 095°02'0 0.0
2017-Sep-15 17:58N 29°37' W 095°02'0 0.0
2017-Sep-15 17:28N 29°37' W 095°02'0 0.0
2017-Sep-15 16:58N 29°37' W 095°02'0 0.0
2017-Sep-15 16:28N 29°37' W 095°02'0 0.0
2017-Sep-15 15:58N 29°37' W 095°02'0 0.0
2017-Sep-15 15:28N 29°37' W 095°02'0 0.0
2017-Sep-15 14:58N 29°37' W 095°02'0 0.0
2017-Sep-15 14:28N 29°37' W 095°02'0 0.4
2017-Sep-15 14:00N 29°37' W 095°01'0 0.2
2017-Sep-15 13:29N 29°37' W 095°01'0 0.2
2017-Sep-15 13:00N 29°37' W 095°02'0 0.1
2017-Sep-15 12:30N 29°37' W 095°02'0 0.0
2017-Sep-15 12:00N 29°37' W 095°02'1 1.6
2017-Sep-15 11:30N 29°37' W 095°01'3 6.0
2017-Sep-15 10:58N 29°39' W 094°58'2 4.4
2017-Sep-15 10:29N 29°41' W 094°60'0 0.1
2017-Sep-15 10:00N 29°41' W 095°00'2 4.9
2017-Sep-15 09:30N 29°39' W 094°58'2 4.2
2017-Sep-15 09:00N 29°37' W 094°57'3 6.8
2017-Sep-15 08:30N 29°37' W 095°01'0 0.2
2017-Sep-15 08:00N 29°37' W 095°01'1 1.8
2017-Sep-15 07:30N 29°37' W 095°00'1 2.3
2017-Sep-15 07:00N 29°37' W 095°02'0 0.3
2017-Sep-15 06:29N 29°37' W 095°01'1 2.8
2017-Sep-15 06:00N 29°37' W 094°60'1 2.9
2017-Sep-15 05:30N 29°37' W 095°02'0 0.0
2017-Sep-15 05:00N 29°37' W 095°02'0 0.0
2017-Sep-15 04:30N 29°37' W 095°02'0 0.0
2017-Sep-15 04:00N 29°37' W 095°02'0 0.1
2017-Sep-15 03:30N 29°37' W 095°02'0 0.1
2017-Sep-15 03:00N 29°37' W 095°02'0 0.0
2017-Sep-15 02:30N 29°37' W 095°02'0 0.0
2017-Sep-15 02:00N 29°37' W 095°02'0 0.0
2017-Sep-15 01:30N 29°37' W 095°02'0 0.0
2017-Sep-15 01:00N 29°37' W 095°02'0 0.0
2017-Sep-15 00:30N 29°37' W 095°02'0 0.0
2017-Sep-15 00:00N 29°37' W 095°02'0 0.0
2017-Sep-14 23:30N 29°37' W 095°02'0 0.0
2017-Sep-14 23:00N 29°37' W 095°02'0 0.0
2017-Sep-14 22:30N 29°37' W 095°02'0 0.6
2017-Sep-14 22:00N 29°37' W 095°01'1 1.3
2017-Sep-14 21:28N 29°37' W 095°01'0 0.0
2017-Sep-14 20:58N 29°37' W 095°01'0 0.0
2017-Sep-14 20:28N 29°37' W 095°01'0 0.0
2017-Sep-14 19:55N 29°37' W 095°01'1 1.8
2017-Sep-14 19:30N 29°37' W 095°01'0 0.8
2017-Sep-14 19:00N 29°37' W 095°01'0 0.0
2017-Sep-14 18:30N 29°37' W 095°01'0 0.0
2017-Sep-14 18:00N 29°37' W 095°01'0 0.0
2017-Sep-14 17:30N 29°37' W 095°01'0 0.0
2017-Sep-14 17:00N 29°37' W 095°01'0 0.0
2017-Sep-14 16:30N 29°37' W 095°01'0 0.0
2017-Sep-14 16:00N 29°37' W 095°01'0 0.0
2017-Sep-14 15:30N 29°37' W 095°01'0 0.0
2017-Sep-14 15:00N 29°37' W 095°01'0 0.0
2017-Sep-14 14:30N 29°37' W 095°01'1 1.2
2017-Sep-14 14:00N 29°37' W 095°00'0 0.5
2017-Sep-14 13:30N 29°37' W 095°00'0 0.0
2017-Sep-14 12:58N 29°37' W 095°00'0 0.0
2017-Sep-14 12:28N 29°37' W 095°00'0 0.0
2017-Sep-14 11:58N 29°37' W 095°00'0 0.0
2017-Sep-14 11:28N 29°37' W 095°00'0 0.0
2017-Sep-14 10:52N 29°37' W 095°00'0 0.0
2017-Sep-14 10:28N 29°37' W 095°00'0 0.0
2017-Sep-14 09:58N 29°37' W 095°00'0 0.0
2017-Sep-14 09:28N 29°37' W 095°00'0 0.0
2017-Sep-14 08:58N 29°37' W 095°00'0 0.0
2017-Sep-14 08:28N 29°37' W 095°00'0 0.0
2017-Sep-14 07:58N 29°37' W 095°00'0 0.0
2017-Sep-14 07:28N 29°37' W 095°00'0 0.0
2017-Sep-14 06:58N 29°37' W 095°00'3 4.3
2017-Sep-14 06:21N 29°39' W 094°58'3 8.6
2017-Sep-14 06:00N 29°41' W 094°59'8 6.4
2017-Sep-14 04:49N 29°44' W 095°07'0 0.0
2017-Sep-14 04:30N 29°44' W 095°07'1 0.6
2017-Sep-14 02:44N 29°45' W 095°07'1 1.5
2017-Sep-14 01:55N 29°46' W 095°05'1 0.4
2017-Sep-13 22:59N 29°45' W 095°06'1 0.4
2017-Sep-13 20:16N 29°44' W 095°07'0 0.1
2017-Sep-13 19:58N 29°44' W 095°07'0 0.0
2017-Sep-13 19:26N 29°44' W 095°07'0 0.0
2017-Sep-13 18:54N 29°44' W 095°07'7 0.7
2017-Sep-13 09:39N 29°43' W 095°15'0 1.3
2017-Sep-13 09:27N 29°43' W 095°15'1 2.6
2017-Sep-13 08:58N 29°44' W 095°13'1 0.6
2017-Sep-13 06:38N 29°43' W 095°15'0 0.0
2017-Sep-13 06:29N 29°43' W 095°15'4 0.8
2017-Sep-13 01:04N 29°45' W 095°10'0 2.6
2017-Sep-13 00:53N 29°45' W 095°10'4 1.8
2017-Sep-12 22:43N 29°46' W 095°05'0 0.2
2017-Sep-12 22:28N 29°46' W 095°05'0 0.0
2017-Sep-12 21:59N 29°46' W 095°05'2 0.1
2017-Sep-12 10:32N 29°44' W 095°07'0 0.6
2017-Sep-12 10:30N 29°45' W 095°07'1 0.2
2017-Sep-12 03:38N 29°44' W 095°08'0 0.1
2017-Sep-12 03:13N 29°44' W 095°08'2 0.1
2017-Sep-11 16:52N 29°45' W 095°06'1 0.6
2017-Sep-11 15:50N 29°45' W 095°06'1 3.0
2017-Sep-11 15:28N 29°46' W 095°05'5 7.6
2017-Sep-11 14:52N 29°42' W 095°01'0 0.3
2017-Sep-11 14:28N 29°42' W 095°01'0 0.0
2017-Sep-11 13:58N 29°42' W 095°01'0 0.0
2017-Sep-11 13:25N 29°42' W 095°01'0 0.0
2017-Sep-11 12:58N 29°42' W 095°01'2 5.1
2017-Sep-11 12:30N 29°41' W 094°59'4 8.0
2017-Sep-11 12:00N 29°37' W 094°59'2 3.1
2017-Sep-11 11:30N 29°37' W 095°00'1 1.7
2017-Sep-11 11:00N 29°37' W 095°01'1 2.7
2017-Sep-11 10:30N 29°37' W 094°60'4 7.3
2017-Sep-11 10:00N 29°35' W 094°56'1 2.5
2017-Sep-11 09:30N 29°36' W 094°57'4 7.5
2017-Sep-11 08:58N 29°37' W 095°02'0 0.0
2017-Sep-11 08:28N 29°37' W 095°02'0 0.0
2017-Sep-11 07:58N 29°37' W 095°02'0 0.0
2017-Sep-11 07:28N 29°37' W 095°02'0 0.0
2017-Sep-11 06:58N 29°37' W 095°02'0 0.0
2017-Sep-11 06:28N 29°37' W 095°02'0 0.0
2017-Sep-11 05:58N 29°37' W 095°02'0 0.0
2017-Sep-11 05:28N 29°37' W 095°02'0 0.0
2017-Sep-11 04:58N 29°37' W 095°02'0 0.0
2017-Sep-11 04:28N 29°37' W 095°02'0 0.0
2017-Sep-11 03:58N 29°37' W 095°02'0 0.0
2017-Sep-11 03:28N 29°37' W 095°02'0 0.0
2017-Sep-11 02:58N 29°37' W 095°02'0 0.2
2017-Sep-11 02:30N 29°37' W 095°01'2 2.3
2017-Sep-11 01:42N 29°37' W 094°59'1 5.3
2017-Sep-11 01:30N 29°37' W 094°58'3 5.7
2017-Sep-11 01:00N 29°37' W 095°02'0 0.1
2017-Sep-11 00:30N 29°37' W 095°02'0 0.8
2017-Sep-11 00:00N 29°37' W 095°01'0 0.1
2017-Sep-10 23:30N 29°37' W 095°01'0 0.5
2017-Sep-10 23:00N 29°37' W 095°01'1 1.5
2017-Sep-10 22:30N 29°37' W 095°01'1 1.1
2017-Sep-10 22:00N 29°37' W 094°60'1 2.3
2017-Sep-10 21:30N 29°37' W 094°59'3 6.4
2017-Sep-10 21:00N 29°35' W 094°56'2 4.6
2017-Sep-10 20:29N 29°37' W 094°57'3 5.5
2017-Sep-10 19:58N 29°37' W 095°01'0 0.0
2017-Sep-10 19:25N 29°37' W 095°01'1 1.7
2017-Sep-10 18:59N 29°37' W 095°01'0 0.4
2017-Sep-10 18:30N 29°37' W 095°02'0 0.0
2017-Sep-10 18:00N 29°37' W 095°02'0 0.0
2017-Sep-10 17:30N 29°37' W 095°02'1 2.6
2017-Sep-10 17:00N 29°37' W 095°00'0 0.7
2017-Sep-10 16:30N 29°37' W 095°00'3 4.6
2017-Sep-10 15:53N 29°39' W 094°58'4 9.0
2017-Sep-10 15:25N 29°42' W 095°01'0 1.0
2017-Sep-10 14:59N 29°42' W 095°01'0 0.0
2017-Sep-10 13:59N 29°42' W 095°01'0 0.0
2017-Sep-10 13:08N 29°42' W 095°01'0 0.0
2017-Sep-10 12:59N 29°42' W 095°01'0 0.0
2017-Sep-10 12:26N 29°42' W 095°01'0 0.0
2017-Sep-10 11:59N 29°42' W 095°01'2 3.9
2017-Sep-10 11:30N 29°41' W 094°60'1 1.1
2017-Sep-10 10:56N 29°41' W 095°00'1 2.8
2017-Sep-10 10:30N 29°41' W 094°59'0 0.9
2017-Sep-10 09:59N 29°41' W 094°59'0 0.6
2017-Sep-10 09:28N 29°41' W 094°60'0 0.0
2017-Sep-10 08:58N 29°41' W 094°60'0 0.0
2017-Sep-10 08:28N 29°41' W 094°60'0 0.0
2017-Sep-10 07:58N 29°41' W 094°60'0 0.0
2017-Sep-10 07:28N 29°41' W 094°60'0 0.0
2017-Sep-10 06:58N 29°41' W 094°60'0 0.0
2017-Sep-10 06:28N 29°41' W 094°60'0 0.0
2017-Sep-10 05:58N 29°41' W 094°60'0 0.0
2017-Sep-10 05:28N 29°41' W 094°60'0 0.0
2017-Sep-10 04:58N 29°41' W 094°60'0 0.0
2017-Sep-10 04:28N 29°41' W 094°60'0 0.0
2017-Sep-10 03:58N 29°41' W 094°60'0 0.0
2017-Sep-10 03:28N 29°41' W 094°60'0 0.0
2017-Sep-10 02:58N 29°41' W 094°60'0 0.0
2017-Sep-10 02:28N 29°41' W 094°60'0 0.0
2017-Sep-10 01:58N 29°41' W 094°60'0 0.0
2017-Sep-10 01:28N 29°41' W 094°60'0 0.0
2017-Sep-10 00:58N 29°41' W 094°60'0 0.0
2017-Sep-10 00:28N 29°41' W 094°60'0 0.0
2017-Sep-09 23:58N 29°41' W 094°60'0 0.0
2017-Sep-09 23:28N 29°41' W 094°60'0 0.0
2017-Sep-09 22:58N 29°41' W 094°60'0 0.0
2017-Sep-09 22:28N 29°41' W 094°60'0 0.0
2017-Sep-09 21:58N 29°41' W 094°60'0 0.0
2017-Sep-09 21:28N 29°41' W 094°60'0 0.0
2017-Sep-09 20:58N 29°41' W 094°60'0 0.0
2017-Sep-09 20:28N 29°41' W 094°60'  
Track history (hours):
 
Tides and Currents Weather Stations Pressure Air Temp Water Temp Dewpoint Dewpoint Depression Visibility Wind Speed Wind Dir Waves Ship Positions

Rosemary

Owner: G & H Towing Company, Galveston, TX. More information available from US FCC via Universal Licensing System and Coast Guard Vessel Documentation Center.

Last reported at 2017-Sep-19 20:23 UTC. Time now 2017-Sep-19 20:43 UTC.
Position N 29°46' W 095°05'.

Length 29 m; draft 4.5 m.

Type: Tug. MMSI: 367438690.

Date/timePositionNaut miles runAvg speedWind from/ knotsBaromVisibWave heightAir tempDewpointWater temp
2017-Sep-19 20:23N 29°46' W 095°05'3 6.8
2017-Sep-19 20:00N 29°44' W 095°03'3 4.5
2017-Sep-19 19:26N 29°42' W 095°01'0 0.0
2017-Sep-19 18:57N 29°42' W 095°01'0 0.0
2017-Sep-19 18:24N 29°42' W 095°01'0 0.0
2017-Sep-19 17:57N 29°42' W 095°01'0 0.0
2017-Sep-19 17:30N 29°42' W 095°01'0 0.0
2017-Sep-19 17:00N 29°42' W 095°01'0 0.0
2017-Sep-19 16:30N 29°42' W 095°01'0 0.0
2017-Sep-19 16:00N 29°42' W 095°01'0 0.0
2017-Sep-19 15:30N 29°42' W 095°01'0 0.0
2017-Sep-19 15:00N 29°42' W 095°01'0 0.0
2017-Sep-19 14:29N 29°42' W 095°01'0 0.0
2017-Sep-19 14:00N 29°42' W 095°01'0 0.0
2017-Sep-19 13:22N 29°42' W 095°01'0 0.0
2017-Sep-19 12:49N 29°42' W 095°01'0 0.0
2017-Sep-19 12:30N 29°42' W 095°01'0 0.0
2017-Sep-19 11:25N 29°42' W 095°01'0 0.0
2017-Sep-19 10:57N 29°42' W 095°01'0 0.9
2017-Sep-19 10:30N 29°42' W 095°01'4 8.2
2017-Sep-19 10:00N 29°39' W 094°58'510.1
2017-Sep-19 09:30N 29°34' W 094°55'510.6
2017-Sep-19 09:00N 29°30' W 094°52'3 0.5
2017-Sep-19 03:39N 29°32' W 094°54'210.2
2017-Sep-19 03:28N 29°34' W 094°55'5 9.6
2017-Sep-19 03:00N 29°37' W 094°59'2 5.0
2017-Sep-19 02:30N 29°37' W 095°01'0 0.0
2017-Sep-19 02:00N 29°37' W 095°01'0 0.2
2017-Sep-19 01:30N 29°37' W 095°02'1 1.4
2017-Sep-19 01:00N 29°37' W 095°01'0 0.7
2017-Sep-19 00:29N 29°37' W 095°01'0 0.0
2017-Sep-18 23:59N 29°37' W 095°01'0 0.0
2017-Sep-18 23:29N 29°37' W 095°01'0 0.0
2017-Sep-18 22:59N 29°37' W 095°01'0 0.0
2017-Sep-18 22:29N 29°37' W 095°01'0 0.0
2017-Sep-18 21:59N 29°37' W 095°01'0 0.0
2017-Sep-18 21:29N 29°37' W 095°01'0 0.0
2017-Sep-18 20:59N 29°37' W 095°01'0 0.0
2017-Sep-18 20:29N 29°37' W 095°01'0 0.0
2017-Sep-18 19:56N 29°37' W 095°01'0 0.0
2017-Sep-18 19:29N 29°37' W 095°01'0 0.7
2017-Sep-18 18:56N 29°37' W 095°02'0 0.0
2017-Sep-18 18:29N 29°37' W 095°02'0 0.0
2017-Sep-18 17:59N 29°37' W 095°02'0 0.1
2017-Sep-18 17:31N 29°37' W 095°02'0 0.1
2017-Sep-18 16:55N 29°37' W 095°02'0 0.0
2017-Sep-18 16:25N 29°37' W 095°02'0 0.0
2017-Sep-18 15:55N 29°37' W 095°02'0 0.0
2017-Sep-18 15:28N 29°37' W 095°02'0 0.6
2017-Sep-18 15:00N 29°37' W 095°01'0 0.2
2017-Sep-18 14:29N 29°37' W 095°01'0 0.0
2017-Sep-18 13:59N 29°37' W 095°01'0 0.0
2017-Sep-18 13:30N 29°37' W 095°01'1 1.7
2017-Sep-18 13:00N 29°37' W 095°00'1 1.8
2017-Sep-18 12:30N 29°37' W 095°01'1 2.2
2017-Sep-18 12:00N 29°37' W 095°00'3 6.3
2017-Sep-18 11:30N 29°40' W 094°58'2 3.0
2017-Sep-18 11:00N 29°41' W 094°59'0 1.0
2017-Sep-18 10:30N 29°41' W 094°59'0 0.8
2017-Sep-18 09:59N 29°41' W 094°59'0 0.3
2017-Sep-18 09:28N 29°41' W 094°59'0 0.0
2017-Sep-18 08:55N 29°41' W 094°59'0 0.0
2017-Sep-18 08:19N 29°41' W 094°59'0 0.0
2017-Sep-18 07:58N 29°41' W 094°59'0 0.0
2017-Sep-18 07:28N 29°41' W 094°59'0 0.0
2017-Sep-18 06:55N 29°41' W 094°59'0 0.0
2017-Sep-18 06:25N 29°41' W 094°59'0 0.0
2017-Sep-18 05:58N 29°41' W 094°59'0 0.0
2017-Sep-18 05:22N 29°41' W 094°59'0 0.0
2017-Sep-18 04:58N 29°41' W 094°59'0 0.0
2017-Sep-18 04:28N 29°41' W 094°59'0 0.0
2017-Sep-18 03:58N 29°41' W 094°59'0 0.0
2017-Sep-18 03:25N 29°41' W 094°59'0 0.0
2017-Sep-18 02:58N 29°41' W 094°59'0 0.0
2017-Sep-18 02:30N 29°41' W 094°59'3 5.3
2017-Sep-18 02:00N 29°43' W 095°01'2 1.4
2017-Sep-18 00:39N 29°44' W 095°03'2 6.7
2017-Sep-18 00:20N 29°43' W 095°01'1 0.5
2017-Sep-17 23:13N 29°42' W 095°01'0 0.0
2017-Sep-17 22:46N 29°42' W 095°01'0 0.0
2017-Sep-17 22:30N 29°42' W 095°01'5 3.5
2017-Sep-17 21:05N 29°45' W 095°06'0 0.3
2017-Sep-17 20:55N 29°45' W 095°06'4 0.6
2017-Sep-17 14:45N 29°45' W 095°10'0 0.1
2017-Sep-17 10:58N 29°44' W 095°09'0 0.9
2017-Sep-17 10:30N 29°44' W 095°10'0 0.0
2017-Sep-17 10:00N 29°44' W 095°10'3 0.3
2017-Sep-16 23:14N 29°45' W 095°06'0 0.3
2017-Sep-16 22:15N 29°45' W 095°06'1 3.2
2017-Sep-16 21:55N 29°46' W 095°05'1 0.1
2017-Sep-16 15:12N 29°45' W 095°06'1 4.0
2017-Sep-16 15:00N 29°46' W 095°05'3 5.8
2017-Sep-16 14:25N 29°44' W 095°02'2 4.2
2017-Sep-16 14:00N 29°42' W 095°01'0 0.0
2017-Sep-16 13:30N 29°42' W 095°01'0 0.0
2017-Sep-16 13:00N 29°42' W 095°01'0 0.0
2017-Sep-16 12:30N 29°42' W 095°01'4 8.1
2017-Sep-16 12:00N 29°39' W 094°58'3 6.5
2017-Sep-16 11:30N 29°37' W 095°01'1 1.2
2017-Sep-16 11:00N 29°36' W 095°01'0 0.0
2017-Sep-16 10:30N 29°37' W 095°01'0 0.0
2017-Sep-16 10:00N 29°37' W 095°01'1 1.8
2017-Sep-16 09:30N 29°37' W 095°00'0 0.2
2017-Sep-16 09:00N 29°37' W 095°01'0 0.3
2017-Sep-16 08:30N 29°37' W 095°01'1 1.3
2017-Sep-16 07:59N 29°37' W 094°60'3 5.9
2017-Sep-16 07:30N 29°39' W 094°58'2 4.3
2017-Sep-16 07:00N 29°41' W 094°59'0 0.0
2017-Sep-16 06:30N 29°41' W 094°59'0 0.0
2017-Sep-16 06:00N 29°41' W 094°59'0 0.9
2017-Sep-16 05:30N 29°41' W 094°60'1 2.3
2017-Sep-16 05:00N 29°41' W 094°59'4 7.3
2017-Sep-16 04:30N 29°37' W 094°59'1 2.1
2017-Sep-16 03:48N 29°37' W 095°00'0 0.0
2017-Sep-16 03:30N 29°37' W 095°00'0 0.0
2017-Sep-16 03:00N 29°37' W 095°00'0 0.0
2017-Sep-16 02:30N 29°37' W 095°00'0 0.0
2017-Sep-16 02:00N 29°37' W 095°00'0 0.0
2017-Sep-16 01:30N 29°37' W 095°00'0 0.0
2017-Sep-16 01:00N 29°37' W 095°00'0 0.0
2017-Sep-16 00:30N 29°37' W 095°00'0 0.0
2017-Sep-16 00:00N 29°37' W 095°00'0 0.0
2017-Sep-15 23:30N 29°37' W 095°00'0 0.0
2017-Sep-15 23:00N 29°37' W 095°00'0 0.0
2017-Sep-15 22:27N 29°37' W 095°00'0 0.0
2017-Sep-15 21:58N 29°37' W 095°00'0 0.1
2017-Sep-15 21:30N 29°37' W 095°00'1 2.2
2017-Sep-15 20:58N 29°37' W 095°02'0 0.0
2017-Sep-15 20:28N 29°37' W 095°02'0 0.0
2017-Sep-15 19:58N 29°37' W 095°02'0 0.0
2017-Sep-15 19:22N 29°37' W 095°02'0 0.0
2017-Sep-15 18:58N 29°37' W 095°02'0 0.0
2017-Sep-15 18:28N 29°37' W 095°02'0 0.0
2017-Sep-15 17:58N 29°37' W 095°02'0 0.0
2017-Sep-15 17:28N 29°37' W 095°02'0 0.0
2017-Sep-15 16:58N 29°37' W 095°02'0 0.0
2017-Sep-15 16:28N 29°37' W 095°02'0 0.0
2017-Sep-15 15:58N 29°37' W 095°02'0 0.0
2017-Sep-15 15:28N 29°37' W 095°02'0 0.0
2017-Sep-15 14:58N 29°37' W 095°02'0 0.0
2017-Sep-15 14:28N 29°37' W 095°02'0 0.4
2017-Sep-15 14:00N 29°37' W 095°01'0 0.2
2017-Sep-15 13:29N 29°37' W 095°01'0 0.2
2017-Sep-15 13:00N 29°37' W 095°02'0 0.1
2017-Sep-15 12:30N 29°37' W 095°02'0 0.0
2017-Sep-15 12:00N 29°37' W 095°02'1 1.6
2017-Sep-15 11:30N 29°37' W 095°01'3 6.0
2017-Sep-15 10:58N 29°39' W 094°58'2 4.4
2017-Sep-15 10:29N 29°41' W 094°60'0 0.1
2017-Sep-15 10:00N 29°41' W 095°00'2 4.9
2017-Sep-15 09:30N 29°39' W 094°58'2 4.2
2017-Sep-15 09:00N 29°37' W 094°57'3 6.8
2017-Sep-15 08:30N 29°37' W 095°01'0 0.2
2017-Sep-15 08:00N 29°37' W 095°01'1 1.8
2017-Sep-15 07:30N 29°37' W 095°00'1 2.3
2017-Sep-15 07:00N 29°37' W 095°02'0 0.3
2017-Sep-15 06:29N 29°37' W 095°01'1 2.8
2017-Sep-15 06:00N 29°37' W 094°60'1 2.9
2017-Sep-15 05:30N 29°37' W 095°02'0 0.0
2017-Sep-15 05:00N 29°37' W 095°02'0 0.0
2017-Sep-15 04:30N 29°37' W 095°02'0 0.0
2017-Sep-15 04:00N 29°37' W 095°02'0 0.1
2017-Sep-15 03:30N 29°37' W 095°02'0 0.1
2017-Sep-15 03:00N 29°37' W 095°02'0 0.0
2017-Sep-15 02:30N 29°37' W 095°02'0 0.0
2017-Sep-15 02:00N 29°37' W 095°02'0 0.0
2017-Sep-15 01:30N 29°37' W 095°02'0 0.0
2017-Sep-15 01:00N 29°37' W 095°02'0 0.0
2017-Sep-15 00:30N 29°37' W 095°02'0 0.0
2017-Sep-15 00:00N 29°37' W 095°02'0 0.0
2017-Sep-14 23:30N 29°37' W 095°02'0 0.0
2017-Sep-14 23:00N 29°37' W 095°02'0 0.0
2017-Sep-14 22:30N 29°37' W 095°02'0 0.6
2017-Sep-14 22:00N 29°37' W 095°01'1 1.3
2017-Sep-14 21:28N 29°37' W 095°01'0 0.0
2017-Sep-14 20:58N 29°37' W 095°01'0 0.0
2017-Sep-14 20:28N 29°37' W 095°01'0 0.0
2017-Sep-14 19:55N 29°37' W 095°01'1 1.8
2017-Sep-14 19:30N 29°37' W 095°01'0 0.8
2017-Sep-14 19:00N 29°37' W 095°01'0 0.0
2017-Sep-14 18:30N 29°37' W 095°01'0 0.0
2017-Sep-14 18:00N 29°37' W 095°01'0 0.0
2017-Sep-14 17:30N 29°37' W 095°01'0 0.0
2017-Sep-14 17:00N 29°37' W 095°01'0 0.0
2017-Sep-14 16:30N 29°37' W 095°01'0 0.0
2017-Sep-14 16:00N 29°37' W 095°01'0 0.0
2017-Sep-14 15:30N 29°37' W 095°01'0 0.0
2017-Sep-14 15:00N 29°37' W 095°01'0 0.0
2017-Sep-14 14:30N 29°37' W 095°01'1 1.2
2017-Sep-14 14:00N 29°37' W 095°00'0 0.5
2017-Sep-14 13:30N 29°37' W 095°00'0 0.0
2017-Sep-14 12:58N 29°37' W 095°00'0 0.0
2017-Sep-14 12:28N 29°37' W 095°00'0 0.0
2017-Sep-14 11:58N 29°37' W 095°00'0 0.0
2017-Sep-14 11:28N 29°37' W 095°00'0 0.0
2017-Sep-14 10:52N 29°37' W 095°00'0 0.0
2017-Sep-14 10:28N 29°37' W 095°00'0 0.0
2017-Sep-14 09:58N 29°37' W 095°00'0 0.0
2017-Sep-14 09:28N 29°37' W 095°00'0 0.0
2017-Sep-14 08:58N 29°37' W 095°00'0 0.0
2017-Sep-14 08:28N 29°37' W 095°00'0 0.0
2017-Sep-14 07:58N 29°37' W 095°00'0 0.0
2017-Sep-14 07:28N 29°37' W 095°00'0 0.0
2017-Sep-14 06:58N 29°37' W 095°00'3 4.3
2017-Sep-14 06:21N 29°39' W 094°58'3 8.6
2017-Sep-14 06:00N 29°41' W 094°59'8 6.4
2017-Sep-14 04:49N 29°44' W 095°07'0 0.0
2017-Sep-14 04:30N 29°44' W 095°07'1 0.6
2017-Sep-14 02:44N 29°45' W 095°07'1 1.5
2017-Sep-14 01:55N 29°46' W 095°05'1 0.4
2017-Sep-13 22:59N 29°45' W 095°06'1 0.4
2017-Sep-13 20:16N 29°44' W 095°07'0 0.1
2017-Sep-13 19:58N 29°44' W 095°07'0 0.0
2017-Sep-13 19:26N 29°44' W 095°07'0 0.0
2017-Sep-13 18:54N 29°44' W 095°07'7 0.7
2017-Sep-13 09:39N 29°43' W 095°15'0 1.3
2017-Sep-13 09:27N 29°43' W 095°15'1 2.6
2017-Sep-13 08:58N 29°44' W 095°13'1 0.6
2017-Sep-13 06:38N 29°43' W 095°15'0 0.0
2017-Sep-13 06:29N 29°43' W 095°15'4 0.8
2017-Sep-13 01:04N 29°45' W 095°10'0 2.6
2017-Sep-13 00:53N 29°45' W 095°10'4 1.8
2017-Sep-12 22:43N 29°46' W 095°05'0 0.2
2017-Sep-12 22:28N 29°46' W 095°05'0 0.0
2017-Sep-12 21:59N 29°46' W 095°05'2 0.1
2017-Sep-12 10:32N 29°44' W 095°07'0 0.6
2017-Sep-12 10:30N 29°45' W 095°07'1 0.2
2017-Sep-12 03:38N 29°44' W 095°08'0 0.1
2017-Sep-12 03:13N 29°44' W 095°08'2 0.1
2017-Sep-11 16:52N 29°45' W 095°06'1 0.6
2017-Sep-11 15:50N 29°45' W 095°06'1 3.0
2017-Sep-11 15:28N 29°46' W 095°05'5 7.6
2017-Sep-11 14:52N 29°42' W 095°01'0 0.3
2017-Sep-11 14:28N 29°42' W 095°01'0 0.0
2017-Sep-11 13:58N 29°42' W 095°01'0 0.0
2017-Sep-11 13:25N 29°42' W 095°01'0 0.0
2017-Sep-11 12:58N 29°42' W 095°01'2 5.1
2017-Sep-11 12:30N 29°41' W 094°59'4 8.0
2017-Sep-11 12:00N 29°37' W 094°59'2 3.1
2017-Sep-11 11:30N 29°37' W 095°00'1 1.7
2017-Sep-11 11:00N 29°37' W 095°01'1 2.7
2017-Sep-11 10:30N 29°37' W 094°60'4 7.3
2017-Sep-11 10:00N 29°35' W 094°56'1 2.5
2017-Sep-11 09:30N 29°36' W 094°57'4 7.5
2017-Sep-11 08:58N 29°37' W 095°02'0 0.0
2017-Sep-11 08:28N 29°37' W 095°02'0 0.0
2017-Sep-11 07:58N 29°37' W 095°02'0 0.0
2017-Sep-11 07:28N 29°37' W 095°02'0 0.0
2017-Sep-11 06:58N 29°37' W 095°02'0 0.0
2017-Sep-11 06:28N 29°37' W 095°02'0 0.0
2017-Sep-11 05:58N 29°37' W 095°02'0 0.0
2017-Sep-11 05:28N 29°37' W 095°02'0 0.0
2017-Sep-11 04:58N 29°37' W 095°02'0 0.0
2017-Sep-11 04:28N 29°37' W 095°02'0 0.0
2017-Sep-11 03:58N 29°37' W 095°02'0 0.0
2017-Sep-11 03:28N 29°37' W 095°02'0 0.0
2017-Sep-11 02:58N 29°37' W 095°02'0 0.2
2017-Sep-11 02:30N 29°37' W 095°01'2 2.3
2017-Sep-11 01:42N 29°37' W 094°59'1 5.3
2017-Sep-11 01:30N 29°37' W 094°58'3 5.7
2017-Sep-11 01:00N 29°37' W 095°02'0 0.1
2017-Sep-11 00:30N 29°37' W 095°02'0 0.8
2017-Sep-11 00:00N 29°37' W 095°01'0 0.1
2017-Sep-10 23:30N 29°37' W 095°01'0 0.5
2017-Sep-10 23:00N 29°37' W 095°01'1 1.5
2017-Sep-10 22:30N 29°37' W 095°01'1 1.1
2017-Sep-10 22:00N 29°37' W 094°60'1 2.3
2017-Sep-10 21:30N 29°37' W 094°59'3 6.4
2017-Sep-10 21:00N 29°35' W 094°56'2 4.6
2017-Sep-10 20:29N 29°37' W 094°57'3 5.5
2017-Sep-10 19:58N 29°37' W 095°01'0 0.0
2017-Sep-10 19:25N 29°37' W 095°01'1 1.7
2017-Sep-10 18:59N 29°37' W 095°01'0 0.4
2017-Sep-10 18:30N 29°37' W 095°02'0 0.0
2017-Sep-10 18:00N 29°37' W 095°02'0 0.0
2017-Sep-10 17:30N 29°37' W 095°02'1 2.6
2017-Sep-10 17:00N 29°37' W 095°00'0 0.7
2017-Sep-10 16:30N 29°37' W 095°00'3 4.6
2017-Sep-10 15:53N 29°39' W 094°58'4 9.0
2017-Sep-10 15:25N 29°42' W 095°01'0 1.0
2017-Sep-10 14:59N 29°42' W 095°01'0 0.0
2017-Sep-10 13:59N 29°42' W 095°01'0 0.0
2017-Sep-10 13:08N 29°42' W 095°01'0 0.0
2017-Sep-10 12:59N 29°42' W 095°01'0 0.0
2017-Sep-10 12:26N 29°42' W 095°01'0 0.0
2017-Sep-10 11:59N 29°42' W 095°01'2 3.9
2017-Sep-10 11:30N 29°41' W 094°60'1 1.1
2017-Sep-10 10:56N 29°41' W 095°00'1 2.8
2017-Sep-10 10:30N 29°41' W 094°59'0 0.9
2017-Sep-10 09:59N 29°41' W 094°59'0 0.6
2017-Sep-10 09:28N 29°41' W 094°60'0 0.0
2017-Sep-10 08:58N 29°41' W 094°60'0 0.0
2017-Sep-10 08:28N 29°41' W 094°60'0 0.0
2017-Sep-10 07:58N 29°41' W 094°60'0 0.0
2017-Sep-10 07:28N 29°41' W 094°60'0 0.0
2017-Sep-10 06:58N 29°41' W 094°60'0 0.0
2017-Sep-10 06:28N 29°41' W 094°60'0 0.0
2017-Sep-10 05:58N 29°41' W 094°60'0 0.0
2017-Sep-10 05:28N 29°41' W 094°60'0 0.0
2017-Sep-10 04:58N 29°41' W 094°60'0 0.0
2017-Sep-10 04:28N 29°41' W 094°60'0 0.0
2017-Sep-10 03:58N 29°41' W 094°60'0 0.0
2017-Sep-10 03:28N 29°41' W 094°60'0 0.0
2017-Sep-10 02:58N 29°41' W 094°60'0 0.0
2017-Sep-10 02:28N 29°41' W 094°60'0 0.0
2017-Sep-10 01:58N 29°41' W 094°60'0 0.0
2017-Sep-10 01:28N 29°41' W 094°60'0 0.0
2017-Sep-10 00:58N 29°41' W 094°60'0 0.0
2017-Sep-10 00:28N 29°41' W 094°60'0 0.0
2017-Sep-09 23:58N 29°41' W 094°60'0 0.0
2017-Sep-09 23:28N 29°41' W 094°60'0 0.0
2017-Sep-09 22:58N 29°41' W 094°60'0 0.0
2017-Sep-09 22:28N 29°41' W 094°60'0 0.0
2017-Sep-09 21:58N 29°41' W 094°60'0 0.0
2017-Sep-09 21:28N 29°41' W 094°60'0 0.0
2017-Sep-09 20:58N 29°41' W 094°60'0 0.0
2017-Sep-09 20:28N 29°41' W 094°60'  

Dump ship's entire track history